sensor_id;sensor_type;location;lat;lon;timestamp;P1;durP1;ratioP1;P2;durP2;ratioP2
43042;SDS011;28667;50.758;6.096;2024-01-30T00:01:51;6.93;;;4.15;;
43042;SDS011;28667;50.758;6.096;2024-01-30T00:04:17;7.57;;;4.80;;
43042;SDS011;28667;50.758;6.096;2024-01-30T00:06:44;7.50;;;4.80;;
43042;SDS011;28667;50.758;6.096;2024-01-30T00:09:10;7.43;;;4.60;;
43042;SDS011;28667;50.758;6.096;2024-01-30T00:11:36;7.68;;;5.15;;
43042;SDS011;28667;50.758;6.096;2024-01-30T00:14:03;8.75;;;4.32;;
43042;SDS011;28667;50.758;6.096;2024-01-30T00:16:29;12.05;;;5.00;;
43042;SDS011;28667;50.758;6.096;2024-01-30T00:18:55;7.63;;;5.15;;
43042;SDS011;28667;50.758;6.096;2024-01-30T00:21:21;6.75;;;4.13;;
43042;SDS011;28667;50.758;6.096;2024-01-30T00:23:47;6.18;;;4.13;;
43042;SDS011;28667;50.758;6.096;2024-01-30T00:26:13;9.10;;;4.75;;
43042;SDS011;28667;50.758;6.096;2024-01-30T00:28:43;6.85;;;4.35;;
43042;SDS011;28667;50.758;6.096;2024-01-30T00:31:09;6.43;;;4.00;;
43042;SDS011;28667;50.758;6.096;2024-01-30T00:33:37;9.00;;;4.38;;
43042;SDS011;28667;50.758;6.096;2024-01-30T00:36:07;11.53;;;4.73;;
43042;SDS011;28667;50.758;6.096;2024-01-30T00:38:33;8.07;;;4.70;;
43042;SDS011;28667;50.758;6.096;2024-01-30T00:40:59;8.38;;;4.32;;
43042;SDS011;28667;50.758;6.096;2024-01-30T00:43:25;7.88;;;4.35;;
43042;SDS011;28667;50.758;6.096;2024-01-30T00:45:51;8.43;;;4.18;;
43042;SDS011;28667;50.758;6.096;2024-01-30T00:48:19;8.18;;;4.13;;
43042;SDS011;28667;50.758;6.096;2024-01-30T00:50:45;7.82;;;4.50;;
43042;SDS011;28667;50.758;6.096;2024-01-30T00:53:11;7.45;;;4.43;;
43042;SDS011;28667;50.758;6.096;2024-01-30T00:55:37;7.32;;;3.85;;
43042;SDS011;28667;50.758;6.096;2024-01-30T00:58:03;7.80;;;4.05;;
43042;SDS011;28667;50.758;6.096;2024-01-30T01:00:29;7.57;;;3.80;;
43042;SDS011;28667;50.758;6.096;2024-01-30T01:02:55;6.35;;;3.97;;
43042;SDS011;28667;50.758;6.096;2024-01-30T01:05:21;7.70;;;3.80;;
43042;SDS011;28667;50.758;6.096;2024-01-30T01:07:46;8.48;;;3.65;;
43042;SDS011;28667;50.758;6.096;2024-01-30T01:10:16;7.32;;;3.72;;
43042;SDS011;28667;50.758;6.096;2024-01-30T01:12:42;7.65;;;3.80;;
43042;SDS011;28667;50.758;6.096;2024-01-30T01:15:08;8.90;;;3.45;;
43042;SDS011;28667;50.758;6.096;2024-01-30T01:17:35;5.55;;;3.70;;
43042;SDS011;28667;50.758;6.096;2024-01-30T01:20:02;6.20;;;3.85;;
43042;SDS011;28667;50.758;6.096;2024-01-30T01:22:28;5.88;;;3.58;;
43042;SDS011;28667;50.758;6.096;2024-01-30T01:24:54;5.60;;;3.90;;
43042;SDS011;28667;50.758;6.096;2024-01-30T01:27:20;5.80;;;3.20;;
43042;SDS011;28667;50.758;6.096;2024-01-30T01:29:46;5.18;;;3.55;;
43042;SDS011;28667;50.758;6.096;2024-01-30T01:32:12;7.32;;;4.18;;
43042;SDS011;28667;50.758;6.096;2024-01-30T01:34:37;5.55;;;3.13;;
43042;SDS011;28667;50.758;6.096;2024-01-30T01:37:03;7.30;;;3.70;;
43042;SDS011;28667;50.758;6.096;2024-01-30T01:39:29;9.35;;;3.90;;
43042;SDS011;28667;50.758;6.096;2024-01-30T01:41:55;5.38;;;3.50;;
43042;SDS011;28667;50.758;6.096;2024-01-30T01:44:21;12.27;;;4.22;;
43042;SDS011;28667;50.758;6.096;2024-01-30T01:46:46;6.32;;;3.38;;
43042;SDS011;28667;50.758;6.096;2024-01-30T01:49:13;5.28;;;3.08;;
43042;SDS011;28667;50.758;6.096;2024-01-30T01:51:39;7.40;;;3.88;;
43042;SDS011;28667;50.758;6.096;2024-01-30T01:54:07;6.40;;;3.78;;
43042;SDS011;28667;50.758;6.096;2024-01-30T01:56:33;5.30;;;3.30;;
43042;SDS011;28667;50.758;6.096;2024-01-30T01:59:04;7.53;;;3.58;;
43042;SDS011;28667;50.758;6.096;2024-01-30T02:01:40;5.50;;;3.17;;
43042;SDS011;28667;50.758;6.096;2024-01-30T02:04:07;6.35;;;3.33;;
43042;SDS011;28667;50.758;6.096;2024-01-30T02:06:34;7.43;;;3.60;;
43042;SDS011;28667;50.758;6.096;2024-01-30T02:09:00;6.30;;;3.25;;
43042;SDS011;28667;50.758;6.096;2024-01-30T02:11:27;8.45;;;3.28;;
43042;SDS011;28667;50.758;6.096;2024-01-30T02:13:53;6.82;;;4.22;;
43042;SDS011;28667;50.758;6.096;2024-01-30T02:16:19;8.55;;;3.30;;
43042;SDS011;28667;50.758;6.096;2024-01-30T02:18:45;8.57;;;3.42;;
43042;SDS011;28667;50.758;6.096;2024-01-30T02:21:13;6.20;;;3.40;;
43042;SDS011;28667;50.758;6.096;2024-01-30T02:23:40;6.63;;;3.30;;
43042;SDS011;28667;50.758;6.096;2024-01-30T02:26:08;5.63;;;3.38;;
43042;SDS011;28667;50.758;6.096;2024-01-30T02:28:33;6.75;;;3.45;;
43042;SDS011;28667;50.758;6.096;2024-01-30T02:30:59;4.53;;;3.20;;
43042;SDS011;28667;50.758;6.096;2024-01-30T02:33:25;4.22;;;2.85;;
43042;SDS011;28667;50.758;6.096;2024-01-30T02:35:50;3.83;;;2.72;;
43042;SDS011;28667;50.758;6.096;2024-01-30T02:38:16;4.85;;;2.85;;
43042;SDS011;28667;50.758;6.096;2024-01-30T02:40:42;6.53;;;3.22;;
43042;SDS011;28667;50.758;6.096;2024-01-30T02:43:07;6.43;;;3.13;;
43042;SDS011;28667;50.758;6.096;2024-01-30T02:45:33;4.75;;;2.92;;
43042;SDS011;28667;50.758;6.096;2024-01-30T02:47:59;5.90;;;3.47;;
43042;SDS011;28667;50.758;6.096;2024-01-30T02:50:25;6.30;;;3.00;;
43042;SDS011;28667;50.758;6.096;2024-01-30T02:52:50;4.95;;;3.33;;
43042;SDS011;28667;50.758;6.096;2024-01-30T02:55:16;5.55;;;3.20;;
43042;SDS011;28667;50.758;6.096;2024-01-30T02:57:44;7.47;;;3.13;;
43042;SDS011;28667;50.758;6.096;2024-01-30T03:00:10;4.75;;;2.90;;
43042;SDS011;28667;50.758;6.096;2024-01-30T03:02:36;3.92;;;3.28;;
43042;SDS011;28667;50.758;6.096;2024-01-30T03:05:02;5.68;;;2.75;;
43042;SDS011;28667;50.758;6.096;2024-01-30T03:07:29;5.00;;;3.15;;
43042;SDS011;28667;50.758;6.096;2024-01-30T03:09:55;5.10;;;3.22;;
43042;SDS011;28667;50.758;6.096;2024-01-30T03:12:21;5.63;;;3.00;;
43042;SDS011;28667;50.758;6.096;2024-01-30T03:14:47;6.80;;;3.30;;
43042;SDS011;28667;50.758;6.096;2024-01-30T03:17:14;5.68;;;3.00;;
43042;SDS011;28667;50.758;6.096;2024-01-30T03:19:40;4.82;;;2.95;;
43042;SDS011;28667;50.758;6.096;2024-01-30T03:22:06;6.32;;;3.55;;
43042;SDS011;28667;50.758;6.096;2024-01-30T03:24:32;5.45;;;3.38;;
43042;SDS011;28667;50.758;6.096;2024-01-30T03:26:57;5.22;;;3.03;;
43042;SDS011;28667;50.758;6.096;2024-01-30T03:29:23;4.60;;;3.33;;
43042;SDS011;28667;50.758;6.096;2024-01-30T03:31:49;5.53;;;3.33;;
43042;SDS011;28667;50.758;6.096;2024-01-30T03:34:14;4.10;;;3.10;;
43042;SDS011;28667;50.758;6.096;2024-01-30T03:36:40;6.43;;;3.55;;
43042;SDS011;28667;50.758;6.096;2024-01-30T03:39:06;7.22;;;4.05;;
43042;SDS011;28667;50.758;6.096;2024-01-30T03:41:32;5.30;;;3.30;;
43042;SDS011;28667;50.758;6.096;2024-01-30T03:43:57;5.00;;;2.95;;
43042;SDS011;28667;50.758;6.096;2024-01-30T03:46:23;8.60;;;3.33;;
43042;SDS011;28667;50.758;6.096;2024-01-30T03:48:49;4.82;;;3.15;;
43042;SDS011;28667;50.758;6.096;2024-01-30T03:51:15;6.95;;;3.20;;
43042;SDS011;28667;50.758;6.096;2024-01-30T03:53:41;4.40;;;2.78;;
43042;SDS011;28667;50.758;6.096;2024-01-30T03:56:08;6.60;;;3.42;;
43042;SDS011;28667;50.758;6.096;2024-01-30T03:58:34;6.55;;;4.00;;
43042;SDS011;28667;50.758;6.096;2024-01-30T04:00:59;9.52;;;3.28;;
43042;SDS011;28667;50.758;6.096;2024-01-30T04:03:25;5.07;;;3.15;;
43042;SDS011;28667;50.758;6.096;2024-01-30T04:05:51;5.22;;;3.15;;
43042;SDS011;28667;50.758;6.096;2024-01-30T04:08:17;6.60;;;3.35;;
43042;SDS011;28667;50.758;6.096;2024-01-30T04:10:43;6.32;;;3.13;;
43042;SDS011;28667;50.758;6.096;2024-01-30T04:13:09;4.70;;;2.70;;
43042;SDS011;28667;50.758;6.096;2024-01-30T04:15:35;6.93;;;3.08;;
43042;SDS011;28667;50.758;6.096;2024-01-30T04:18:01;5.38;;;3.55;;
43042;SDS011;28667;50.758;6.096;2024-01-30T04:20:27;6.07;;;3.72;;
43042;SDS011;28667;50.758;6.096;2024-01-30T04:22:53;6.25;;;3.20;;
43042;SDS011;28667;50.758;6.096;2024-01-30T04:25:18;8.43;;;3.72;;
43042;SDS011;28667;50.758;6.096;2024-01-30T04:27:44;6.20;;;4.00;;
43042;SDS011;28667;50.758;6.096;2024-01-30T04:30:10;4.85;;;3.08;;
43042;SDS011;28667;50.758;6.096;2024-01-30T04:32:36;6.25;;;3.20;;
43042;SDS011;28667;50.758;6.096;2024-01-30T04:35:02;4.22;;;3.00;;
43042;SDS011;28667;50.758;6.096;2024-01-30T04:37:28;6.43;;;3.22;;
43042;SDS011;28667;50.758;6.096;2024-01-30T04:39:54;5.32;;;3.17;;
43042;SDS011;28667;50.758;6.096;2024-01-30T04:42:20;3.55;;;2.92;;
43042;SDS011;28667;50.758;6.096;2024-01-30T04:44:46;5.47;;;3.28;;
43042;SDS011;28667;50.758;6.096;2024-01-30T04:47:11;7.28;;;3.38;;
43042;SDS011;28667;50.758;6.096;2024-01-30T04:49:40;4.47;;;3.17;;
43042;SDS011;28667;50.758;6.096;2024-01-30T04:52:07;4.93;;;3.35;;
43042;SDS011;28667;50.758;6.096;2024-01-30T04:54:33;6.13;;;3.55;;
43042;SDS011;28667;50.758;6.096;2024-01-30T04:57:00;5.03;;;3.38;;
43042;SDS011;28667;50.758;6.096;2024-01-30T04:59:26;5.70;;;3.63;;
43042;SDS011;28667;50.758;6.096;2024-01-30T05:01:52;7.30;;;3.20;;
43042;SDS011;28667;50.758;6.096;2024-01-30T05:04:17;8.93;;;4.57;;
43042;SDS011;28667;50.758;6.096;2024-01-30T05:06:43;7.43;;;3.75;;
43042;SDS011;28667;50.758;6.096;2024-01-30T05:09:09;4.95;;;3.30;;
43042;SDS011;28667;50.758;6.096;2024-01-30T05:11:39;4.93;;;3.20;;
43042;SDS011;28667;50.758;6.096;2024-01-30T05:14:05;4.38;;;2.97;;
43042;SDS011;28667;50.758;6.096;2024-01-30T05:16:32;6.70;;;3.40;;
43042;SDS011;28667;50.758;6.096;2024-01-30T05:18:58;4.10;;;2.80;;
43042;SDS011;28667;50.758;6.096;2024-01-30T05:21:24;7.55;;;3.08;;
43042;SDS011;28667;50.758;6.096;2024-01-30T05:23:50;5.20;;;3.08;;
43042;SDS011;28667;50.758;6.096;2024-01-30T05:26:15;6.20;;;3.13;;
43042;SDS011;28667;50.758;6.096;2024-01-30T05:28:41;7.07;;;3.60;;
43042;SDS011;28667;50.758;6.096;2024-01-30T05:31:09;7.68;;;3.60;;
43042;SDS011;28667;50.758;6.096;2024-01-30T05:33:35;5.90;;;3.90;;
43042;SDS011;28667;50.758;6.096;2024-01-30T05:36:01;5.93;;;3.30;;
43042;SDS011;28667;50.758;6.096;2024-01-30T05:38:27;6.43;;;3.20;;
43042;SDS011;28667;50.758;6.096;2024-01-30T05:40:57;5.13;;;2.80;;
43042;SDS011;28667;50.758;6.096;2024-01-30T05:43:23;8.98;;;3.88;;
43042;SDS011;28667;50.758;6.096;2024-01-30T05:45:49;4.97;;;3.20;;
43042;SDS011;28667;50.758;6.096;2024-01-30T05:48:16;5.78;;;3.53;;
43042;SDS011;28667;50.758;6.096;2024-01-30T05:50:42;10.73;;;4.32;;
43042;SDS011;28667;50.758;6.096;2024-01-30T05:53:08;8.02;;;3.47;;
43042;SDS011;28667;50.758;6.096;2024-01-30T05:55:33;5.07;;;3.42;;
43042;SDS011;28667;50.758;6.096;2024-01-30T05:57:59;5.75;;;3.10;;
43042;SDS011;28667;50.758;6.096;2024-01-30T06:00:25;7.63;;;3.78;;
43042;SDS011;28667;50.758;6.096;2024-01-30T06:02:51;4.75;;;3.17;;
43042;SDS011;28667;50.758;6.096;2024-01-30T06:05:16;6.75;;;3.28;;
43042;SDS011;28667;50.758;6.096;2024-01-30T06:07:42;5.25;;;3.47;;
43042;SDS011;28667;50.758;6.096;2024-01-30T06:10:08;10.48;;;3.60;;
43042;SDS011;28667;50.758;6.096;2024-01-30T06:12:37;6.63;;;3.92;;
43042;SDS011;28667;50.758;6.096;2024-01-30T06:15:03;6.18;;;3.35;;
43042;SDS011;28667;50.758;6.096;2024-01-30T06:17:29;9.10;;;3.53;;
43042;SDS011;28667;50.758;6.096;2024-01-30T06:19:55;6.10;;;3.35;;
43042;SDS011;28667;50.758;6.096;2024-01-30T06:22:21;7.95;;;3.47;;
43042;SDS011;28667;50.758;6.096;2024-01-30T06:24:47;6.53;;;3.55;;
43042;SDS011;28667;50.758;6.096;2024-01-30T06:27:14;6.82;;;3.47;;
43042;SDS011;28667;50.758;6.096;2024-01-30T06:29:40;5.93;;;3.65;;
43042;SDS011;28667;50.758;6.096;2024-01-30T06:32:08;6.05;;;3.28;;
43042;SDS011;28667;50.758;6.096;2024-01-30T06:34:34;5.70;;;3.55;;
43042;SDS011;28667;50.758;6.096;2024-01-30T06:36:59;6.57;;;3.80;;
43042;SDS011;28667;50.758;6.096;2024-01-30T06:39:26;5.53;;;3.45;;
43042;SDS011;28667;50.758;6.096;2024-01-30T06:41:52;7.13;;;3.47;;
43042;SDS011;28667;50.758;6.096;2024-01-30T06:44:17;8.80;;;3.95;;
43042;SDS011;28667;50.758;6.096;2024-01-30T06:46:43;7.53;;;4.28;;
43042;SDS011;28667;50.758;6.096;2024-01-30T06:49:09;5.63;;;3.63;;
43042;SDS011;28667;50.758;6.096;2024-01-30T06:51:35;7.90;;;4.22;;
43042;SDS011;28667;50.758;6.096;2024-01-30T06:54:00;11.57;;;4.38;;
43042;SDS011;28667;50.758;6.096;2024-01-30T06:56:26;6.10;;;3.28;;
43042;SDS011;28667;50.758;6.096;2024-01-30T06:58:53;7.72;;;3.88;;
43042;SDS011;28667;50.758;6.096;2024-01-30T07:01:19;6.70;;;4.18;;
43042;SDS011;28667;50.758;6.096;2024-01-30T07:03:44;7.00;;;3.85;;
43042;SDS011;28667;50.758;6.096;2024-01-30T07:06:11;8.32;;;3.75;;
43042;SDS011;28667;50.758;6.096;2024-01-30T07:08:37;6.35;;;3.88;;
43042;SDS011;28667;50.758;6.096;2024-01-30T07:11:06;6.03;;;3.65;;
43042;SDS011;28667;50.758;6.096;2024-01-30T07:13:32;6.28;;;3.50;;
43042;SDS011;28667;50.758;6.096;2024-01-30T07:15:58;9.90;;;4.10;;
43042;SDS011;28667;50.758;6.096;2024-01-30T07:18:23;7.43;;;4.20;;
43042;SDS011;28667;50.758;6.096;2024-01-30T07:20:49;4.70;;;3.35;;
43042;SDS011;28667;50.758;6.096;2024-01-30T07:23:15;7.85;;;3.97;;
43042;SDS011;28667;50.758;6.096;2024-01-30T07:25:46;7.28;;;3.72;;
43042;SDS011;28667;50.758;6.096;2024-01-30T07:28:15;7.20;;;3.75;;
43042;SDS011;28667;50.758;6.096;2024-01-30T07:30:44;5.15;;;3.65;;
43042;SDS011;28667;50.758;6.096;2024-01-30T07:33:10;4.25;;;3.50;;
43042;SDS011;28667;50.758;6.096;2024-01-30T07:35:36;7.25;;;4.32;;
43042;SDS011;28667;50.758;6.096;2024-01-30T07:38:02;6.38;;;3.65;;
43042;SDS011;28667;50.758;6.096;2024-01-30T07:40:27;5.68;;;3.47;;
43042;SDS011;28667;50.758;6.096;2024-01-30T07:42:53;11.57;;;4.38;;
43042;SDS011;28667;50.758;6.096;2024-01-30T07:45:20;9.07;;;3.67;;
43042;SDS011;28667;50.758;6.096;2024-01-30T07:47:50;7.22;;;3.63;;
43042;SDS011;28667;50.758;6.096;2024-01-30T07:50:16;6.70;;;3.72;;
43042;SDS011;28667;50.758;6.096;2024-01-30T07:52:43;7.30;;;3.60;;
43042;SDS011;28667;50.758;6.096;2024-01-30T07:55:09;12.02;;;4.22;;
43042;SDS011;28667;50.758;6.096;2024-01-30T07:57:34;6.63;;;4.20;;
43042;SDS011;28667;50.758;6.096;2024-01-30T08:00:01;8.07;;;3.80;;
43042;SDS011;28667;50.758;6.096;2024-01-30T08:02:32;9.23;;;4.35;;
43042;SDS011;28667;50.758;6.096;2024-01-30T08:04:58;6.82;;;4.50;;
43042;SDS011;28667;50.758;6.096;2024-01-30T08:07:23;7.35;;;3.72;;
43042;SDS011;28667;50.758;6.096;2024-01-30T08:09:49;7.15;;;4.00;;
43042;SDS011;28667;50.758;6.096;2024-01-30T08:12:15;9.20;;;4.10;;
43042;SDS011;28667;50.758;6.096;2024-01-30T08:14:41;8.00;;;4.07;;
43042;SDS011;28667;50.758;6.096;2024-01-30T08:17:07;7.68;;;3.75;;
43042;SDS011;28667;50.758;6.096;2024-01-30T08:19:33;7.25;;;4.03;;
43042;SDS011;28667;50.758;6.096;2024-01-30T08:21:58;8.93;;;4.03;;
43042;SDS011;28667;50.758;6.096;2024-01-30T08:24:24;7.50;;;4.20;;
43042;SDS011;28667;50.758;6.096;2024-01-30T08:26:50;5.68;;;3.95;;
43042;SDS011;28667;50.758;6.096;2024-01-30T08:29:16;8.32;;;4.38;;
43042;SDS011;28667;50.758;6.096;2024-01-30T08:31:42;8.63;;;4.30;;
43042;SDS011;28667;50.758;6.096;2024-01-30T08:34:08;6.63;;;3.97;;
43042;SDS011;28667;50.758;6.096;2024-01-30T08:36:33;8.40;;;4.15;;
43042;SDS011;28667;50.758;6.096;2024-01-30T08:38:59;10.77;;;4.20;;
43042;SDS011;28667;50.758;6.096;2024-01-30T08:41:25;7.75;;;4.13;;
43042;SDS011;28667;50.758;6.096;2024-01-30T08:43:51;10.65;;;4.20;;
43042;SDS011;28667;50.758;6.096;2024-01-30T08:46:18;7.88;;;4.10;;
43042;SDS011;28667;50.758;6.096;2024-01-30T08:48:43;8.68;;;4.00;;
43042;SDS011;28667;50.758;6.096;2024-01-30T08:51:10;9.18;;;4.35;;
43042;SDS011;28667;50.758;6.096;2024-01-30T08:53:36;10.35;;;4.10;;
43042;SDS011;28667;50.758;6.096;2024-01-30T08:56:02;9.45;;;4.35;;
43042;SDS011;28667;50.758;6.096;2024-01-30T08:58:29;7.78;;;3.92;;
43042;SDS011;28667;50.758;6.096;2024-01-30T09:00:55;9.65;;;4.40;;
43042;SDS011;28667;50.758;6.096;2024-01-30T09:03:20;8.65;;;4.30;;
43042;SDS011;28667;50.758;6.096;2024-01-30T09:05:46;14.20;;;4.38;;
43042;SDS011;28667;50.758;6.096;2024-01-30T09:08:12;6.97;;;4.10;;
43042;SDS011;28667;50.758;6.096;2024-01-30T09:10:37;7.88;;;3.78;;
43042;SDS011;28667;50.758;6.096;2024-01-30T09:13:03;7.55;;;4.13;;
43042;SDS011;28667;50.758;6.096;2024-01-30T09:15:29;9.93;;;4.38;;
43042;SDS011;28667;50.758;6.096;2024-01-30T09:17:55;7.07;;;4.32;;
43042;SDS011;28667;50.758;6.096;2024-01-30T09:20:21;9.32;;;4.15;;
43042;SDS011;28667;50.758;6.096;2024-01-30T09:22:48;7.88;;;3.97;;
43042;SDS011;28667;50.758;6.096;2024-01-30T09:25:14;10.25;;;4.95;;
43042;SDS011;28667;50.758;6.096;2024-01-30T09:27:40;25.90;;;6.13;;
43042;SDS011;28667;50.758;6.096;2024-01-30T09:30:06;14.32;;;4.63;;
43042;SDS011;28667;50.758;6.096;2024-01-30T09:32:32;9.20;;;4.50;;
43042;SDS011;28667;50.758;6.096;2024-01-30T09:34:58;8.77;;;3.88;;
43042;SDS011;28667;50.758;6.096;2024-01-30T09:37:24;8.63;;;4.63;;
43042;SDS011;28667;50.758;6.096;2024-01-30T09:39:49;13.77;;;4.10;;
43042;SDS011;28667;50.758;6.096;2024-01-30T09:44:59;7.80;;;3.97;;
43042;SDS011;28667;50.758;6.096;2024-01-30T09:47:25;12.85;;;4.03;;
43042;SDS011;28667;50.758;6.096;2024-01-30T09:49:51;7.43;;;3.85;;
43042;SDS011;28667;50.758;6.096;2024-01-30T09:52:17;6.78;;;3.72;;
43042;SDS011;28667;50.758;6.096;2024-01-30T09:54:43;9.32;;;4.22;;
43042;SDS011;28667;50.758;6.096;2024-01-30T09:57:11;9.30;;;4.80;;
43042;SDS011;28667;50.758;6.096;2024-01-30T09:59:37;9.75;;;4.07;;
43042;SDS011;28667;50.758;6.096;2024-01-30T10:02:03;12.30;;;4.40;;
43042;SDS011;28667;50.758;6.096;2024-01-30T10:04:29;9.30;;;4.40;;
43042;SDS011;28667;50.758;6.096;2024-01-30T10:06:55;7.25;;;3.97;;
43042;SDS011;28667;50.758;6.096;2024-01-30T10:09:23;7.70;;;4.32;;
43042;SDS011;28667;50.758;6.096;2024-01-30T10:11:50;7.07;;;4.28;;
43042;SDS011;28667;50.758;6.096;2024-01-30T10:14:16;8.30;;;4.35;;
43042;SDS011;28667;50.758;6.096;2024-01-30T10:16:42;10.57;;;4.20;;
43042;SDS011;28667;50.758;6.096;2024-01-30T10:19:10;6.97;;;4.05;;
43042;SDS011;28667;50.758;6.096;2024-01-30T10:21:36;10.43;;;4.65;;
43042;SDS011;28667;50.758;6.096;2024-01-30T10:24:02;9.40;;;4.22;;
43042;SDS011;28667;50.758;6.096;2024-01-30T10:26:28;7.93;;;4.78;;
43042;SDS011;28667;50.758;6.096;2024-01-30T10:28:54;8.60;;;4.45;;
43042;SDS011;28667;50.758;6.096;2024-01-30T10:31:20;9.00;;;4.03;;
43042;SDS011;28667;50.758;6.096;2024-01-30T10:33:46;7.80;;;4.10;;
43042;SDS011;28667;50.758;6.096;2024-01-30T10:36:13;12.88;;;4.60;;
43042;SDS011;28667;50.758;6.096;2024-01-30T10:38:42;7.03;;;4.20;;
43042;SDS011;28667;50.758;6.096;2024-01-30T10:41:11;7.82;;;4.03;;
43042;SDS011;28667;50.758;6.096;2024-01-30T10:43:43;7.80;;;4.43;;
43042;SDS011;28667;50.758;6.096;2024-01-30T10:46:20;6.80;;;4.03;;
43042;SDS011;28667;50.758;6.096;2024-01-30T10:48:57;10.48;;;4.32;;
43042;SDS011;28667;50.758;6.096;2024-01-30T10:51:27;9.18;;;3.92;;
43042;SDS011;28667;50.758;6.096;2024-01-30T10:53:53;9.50;;;4.80;;
43042;SDS011;28667;50.758;6.096;2024-01-30T10:56:21;7.55;;;4.38;;
43042;SDS011;28667;50.758;6.096;2024-01-30T10:58:51;9.68;;;4.68;;
43042;SDS011;28667;50.758;6.096;2024-01-30T11:01:22;8.65;;;5.07;;
43042;SDS011;28667;50.758;6.096;2024-01-30T11:03:52;10.20;;;4.32;;
43042;SDS011;28667;50.758;6.096;2024-01-30T11:06:21;6.95;;;4.22;;
43042;SDS011;28667;50.758;6.096;2024-01-30T11:09:03;8.65;;;4.68;;
43042;SDS011;28667;50.758;6.096;2024-01-30T11:14:26;13.25;;;5.40;;
43042;SDS011;28667;50.758;6.096;2024-01-30T11:16:57;9.32;;;4.90;;
43042;SDS011;28667;50.758;6.096;2024-01-30T11:19:27;8.93;;;4.53;;
43042;SDS011;28667;50.758;6.096;2024-01-30T11:21:56;8.20;;;4.20;;
43042;SDS011;28667;50.758;6.096;2024-01-30T11:24:24;6.32;;;4.22;;
43042;SDS011;28667;50.758;6.096;2024-01-30T11:26:59;15.35;;;4.43;;
43042;SDS011;28667;50.758;6.096;2024-01-30T11:29:29;7.40;;;4.10;;
43042;SDS011;28667;50.758;6.096;2024-01-30T11:31:56;11.63;;;4.82;;
43042;SDS011;28667;50.758;6.096;2024-01-30T11:34:23;7.72;;;4.22;;
43042;SDS011;28667;50.758;6.096;2024-01-30T11:36:59;8.75;;;3.42;;
43042;SDS011;28667;50.758;6.096;2024-01-30T11:39:29;8.23;;;4.27;;
43042;SDS011;28667;50.758;6.096;2024-01-30T11:41:55;9.52;;;4.03;;
43042;SDS011;28667;50.758;6.096;2024-01-30T11:44:22;12.00;;;4.30;;
43042;SDS011;28667;50.758;6.096;2024-01-30T11:46:48;7.63;;;4.82;;
43042;SDS011;28667;50.758;6.096;2024-01-30T11:49:15;12.13;;;4.50;;
43042;SDS011;28667;50.758;6.096;2024-01-30T11:51:42;7.72;;;4.53;;
43042;SDS011;28667;50.758;6.096;2024-01-30T11:54:10;10.20;;;4.72;;
43042;SDS011;28667;50.758;6.096;2024-01-30T11:56:36;10.32;;;4.93;;
43042;SDS011;28667;50.758;6.096;2024-01-30T11:59:03;11.73;;;5.05;;
43042;SDS011;28667;50.758;6.096;2024-01-30T12:01:30;11.32;;;5.25;;
43042;SDS011;28667;50.758;6.096;2024-01-30T12:03:57;10.25;;;4.68;;
43042;SDS011;28667;50.758;6.096;2024-01-30T12:06:24;10.30;;;4.65;;
43042;SDS011;28667;50.758;6.096;2024-01-30T12:08:59;11.23;;;4.63;;
43042;SDS011;28667;50.758;6.096;2024-01-30T12:11:29;9.90;;;4.72;;
43042;SDS011;28667;50.758;6.096;2024-01-30T12:13:55;10.15;;;4.63;;
43042;SDS011;28667;50.758;6.096;2024-01-30T12:16:21;10.40;;;5.22;;
43042;SDS011;28667;50.758;6.096;2024-01-30T12:18:47;9.50;;;5.18;;
43042;SDS011;28667;50.758;6.096;2024-01-30T12:21:16;9.20;;;5.32;;
43042;SDS011;28667;50.758;6.096;2024-01-30T12:23:43;10.30;;;5.38;;
43042;SDS011;28667;50.758;6.096;2024-01-30T12:26:10;10.55;;;4.63;;
43042;SDS011;28667;50.758;6.096;2024-01-30T12:28:36;9.60;;;5.25;;
43042;SDS011;28667;50.758;6.096;2024-01-30T12:31:02;14.60;;;6.10;;
43042;SDS011;28667;50.758;6.096;2024-01-30T12:33:29;25.42;;;10.30;;
43042;SDS011;28667;50.758;6.096;2024-01-30T12:36:01;13.85;;;5.97;;
43042;SDS011;28667;50.758;6.096;2024-01-30T12:38:28;12.82;;;5.63;;
43042;SDS011;28667;50.758;6.096;2024-01-30T12:40:54;14.30;;;5.82;;
43042;SDS011;28667;50.758;6.096;2024-01-30T12:43:21;27.25;;;7.20;;
43042;SDS011;28667;50.758;6.096;2024-01-30T12:45:48;13.10;;;6.28;;
43042;SDS011;28667;50.758;6.096;2024-01-30T12:48:13;11.52;;;5.90;;
43042;SDS011;28667;50.758;6.096;2024-01-30T12:50:40;18.33;;;6.35;;
43042;SDS011;28667;50.758;6.096;2024-01-30T12:53:06;10.32;;;5.30;;
43042;SDS011;28667;50.758;6.096;2024-01-30T12:55:34;13.73;;;5.72;;
43042;SDS011;28667;50.758;6.096;2024-01-30T12:58:00;17.35;;;6.68;;
43042;SDS011;28667;50.758;6.096;2024-01-30T13:00:26;11.13;;;6.03;;
43042;SDS011;28667;50.758;6.096;2024-01-30T13:02:52;10.95;;;5.75;;
43042;SDS011;28667;50.758;6.096;2024-01-30T13:05:18;12.55;;;5.35;;
43042;SDS011;28667;50.758;6.096;2024-01-30T13:07:44;11.25;;;5.30;;
43042;SDS011;28667;50.758;6.096;2024-01-30T13:10:10;11.82;;;4.93;;
43042;SDS011;28667;50.758;6.096;2024-01-30T13:12:35;9.93;;;4.75;;
43042;SDS011;28667;50.758;6.096;2024-01-30T13:15:03;10.40;;;4.85;;
43042;SDS011;28667;50.758;6.096;2024-01-30T13:17:30;11.23;;;5.40;;
43042;SDS011;28667;50.758;6.096;2024-01-30T13:19:56;9.38;;;4.85;;
43042;SDS011;28667;50.758;6.096;2024-01-30T13:22:23;11.73;;;5.38;;
43042;SDS011;28667;50.758;6.096;2024-01-30T13:24:49;16.20;;;5.78;;
43042;SDS011;28667;50.758;6.096;2024-01-30T13:27:15;12.25;;;6.20;;
43042;SDS011;28667;50.758;6.096;2024-01-30T13:29:42;10.70;;;5.60;;
43042;SDS011;28667;50.758;6.096;2024-01-30T13:32:07;14.60;;;6.32;;
43042;SDS011;28667;50.758;6.096;2024-01-30T13:34:33;16.38;;;6.40;;
43042;SDS011;28667;50.758;6.096;2024-01-30T13:36:59;15.18;;;6.22;;
43042;SDS011;28667;50.758;6.096;2024-01-30T13:39:25;10.60;;;5.70;;
43042;SDS011;28667;50.758;6.096;2024-01-30T13:41:51;16.08;;;6.25;;
43042;SDS011;28667;50.758;6.096;2024-01-30T13:44:17;9.65;;;5.35;;
43042;SDS011;28667;50.758;6.096;2024-01-30T13:46:43;15.10;;;6.05;;
43042;SDS011;28667;50.758;6.096;2024-01-30T13:49:09;11.55;;;5.93;;
43042;SDS011;28667;50.758;6.096;2024-01-30T13:51:34;12.02;;;5.47;;
43042;SDS011;28667;50.758;6.096;2024-01-30T13:54:00;13.10;;;6.03;;
43042;SDS011;28667;50.758;6.096;2024-01-30T13:56:26;12.45;;;6.32;;
43042;SDS011;28667;50.758;6.096;2024-01-30T13:58:52;17.73;;;6.88;;
43042;SDS011;28667;50.758;6.096;2024-01-30T14:01:18;13.55;;;6.47;;
43042;SDS011;28667;50.758;6.096;2024-01-30T14:03:44;13.82;;;6.38;;
43042;SDS011;28667;50.758;6.096;2024-01-30T14:06:10;11.02;;;6.20;;
43042;SDS011;28667;50.758;6.096;2024-01-30T14:08:36;11.20;;;5.75;;
43042;SDS011;28667;50.758;6.096;2024-01-30T14:11:02;14.18;;;6.90;;
43042;SDS011;28667;50.758;6.096;2024-01-30T14:13:28;12.23;;;6.07;;
43042;SDS011;28667;50.758;6.096;2024-01-30T14:15:56;13.38;;;5.97;;
43042;SDS011;28667;50.758;6.096;2024-01-30T14:18:22;10.65;;;6.43;;
43042;SDS011;28667;50.758;6.096;2024-01-30T14:20:48;14.23;;;6.50;;
43042;SDS011;28667;50.758;6.096;2024-01-30T14:23:13;12.48;;;5.80;;
43042;SDS011;28667;50.758;6.096;2024-01-30T14:25:39;8.68;;;5.78;;
43042;SDS011;28667;50.758;6.096;2024-01-30T14:28:05;10.98;;;5.45;;
43042;SDS011;28667;50.758;6.096;2024-01-30T14:30:31;12.50;;;5.55;;
43042;SDS011;28667;50.758;6.096;2024-01-30T14:32:57;14.10;;;6.13;;
43042;SDS011;28667;50.758;6.096;2024-01-30T14:35:23;8.88;;;5.13;;
43042;SDS011;28667;50.758;6.096;2024-01-30T14:37:48;13.45;;;6.55;;
43042;SDS011;28667;50.758;6.096;2024-01-30T14:40:14;12.50;;;6.18;;
43042;SDS011;28667;50.758;6.096;2024-01-30T14:42:40;12.38;;;5.97;;
43042;SDS011;28667;50.758;6.096;2024-01-30T14:45:06;14.55;;;5.90;;